Tiempo atmosférico en la estación meteorológica de Málaga, Puerto, Málaga (20 m.)



Fecha
DESCASC
Temp. máxima en grados centígrados (hora)
DESCASC
Temp. mínima en grados centígrados (hora)
DESCASC
Temp. media en grados centígrados
DESCASC
Racha de viento máxima en m/sg (hora)
DESCASC
Velocidad máxima media en intervalos de 10 minutos(hora)
DESCASC
Precipitaciones diarias en mm
DESCASC
Precipitaciones de 00:00 a 06:00 en mm
DESCASC
Precipitaciones de 06:00 a 12:00 en mm
DESCASC
Precipitaciones de 12:00 a 18:00 en mm
DESCASC
Precipitaciones de 18:00 a 24:00 en mm
DESCASC
22-04-2019 25.3 (16:30) 14.1 (05:50) 19.7 11.94 (04:40) 5.28 (12:40) 0 0 0 0 0
21-04-2019 19.1 (14:10) 13.6 (07:00) 16.4 8.06 (15:10) 5.56 (15:10) 2.6 0 0 1.7 0.9
20-04-2019 18.3 (13:00) 13 (04:30) 15.6 5.83 (19:40) 3.89 (19:20) 0 0 0 0 0
19-04-2019 19.3 (11:10) 12.4 (07:10) 15.8 6.39 (12:30) 4.44 (12:40) 0 0 0 0 0
18-04-2019 -- (--) -- (--) -- -- (--) -- (--) -- -- -- -- --
17-04-2019 -- (--) -- (--) -- -- (--) -- (--) -- -- -- -- --
16-04-2019 -- (--) -- (--) -- -- (--) -- (--) -- -- -- -- --
15-04-2019 -- (--) -- (--) -- -- (--) -- (--) -- -- -- -- --
14-04-2019 -- (--) -- (--) -- -- (--) -- (--) -- -- -- -- --
13-04-2019 -- (--) -- (--) -- -- (--) -- (--) -- -- -- -- --
12-04-2019 -- (--) -- (--) -- -- (--) -- (--) -- -- -- -- --
11-04-2019 -- (--) -- (--) -- -- (--) -- (--) -- -- -- -- --
10-04-2019 -- (--) -- (--) -- -- (--) -- (--) -- -- -- -- --
09-04-2019 -- (--) -- (--) -- -- (--) -- (--) -- -- -- -- --
08-04-2019 -- (--) -- (--) -- -- (--) -- (--) -- -- -- -- --
07-04-2019 -- (--) -- (--) -- -- (--) -- (--) -- -- -- -- --
06-04-2019 -- (--) -- (--) -- -- (--) -- (--) -- -- -- -- --
05-04-2019 -- (--) -- (--) -- -- (--) -- (--) -- -- -- -- --
04-04-2019 -- (--) -- (--) -- -- (--) -- (--) -- -- -- -- --
03-04-2019 -- (--) -- (--) -- -- (--) -- (--) -- -- -- -- --
02-04-2019 -- (--) -- (--) -- -- (--) -- (--) -- -- -- -- --
01-04-2019 -- (--) -- (--) -- -- (--) -- (--) -- -- -- -- --
31-03-2019 -- (--) -- (--) -- -- (--) -- (--) -- -- -- -- --
30-03-2019 -- (--) -- (--) -- -- (--) -- (--) -- -- -- -- --
29-03-2019 -- (--) -- (--) -- -- (--) -- (--) -- 0 -- -- --
28-03-2019 18.1 (11:20) 14 (00:00) 16.1 11.67 (04:10) 6.94 (05:00) 0 0 0 0 0
27-03-2019 18.9 (10:40) 14.1 (00:00) 16.5 15.56 (05:20) 9.17 (06:50) 0 0 0 0 0

Gráficas

Temp. máximas Temp. mínimas Temp. medias Precipitaciones Rachas de viento máximas Velocidades máximas media en intervalos de 10 minutos

Datos horarios

Fecha y hora oficial Temperatura (ºC) Velocidad del viento (km/h) Dirección del viento Racha (km/h) Dirección de racha Precipitación (mm) Presión (hPa) Tendencia (hPa) Humedad (%)
2019-04-25 23:00:00 17.5 14 Noroeste 31 Noroeste 0 1017.5 2.8 48
2019-04-25 22:00:00 18 13 Noroeste 31 Noroeste 0 1016.4 2.1 45
2019-04-25 21:00:00 18.8 9 Noroeste 30 Noroeste 0 1015.4 1.3 41
2019-04-25 20:00:00 17.7 15 Sudoeste 33 Sudoeste 0 1014.7 -- 70
2019-04-25 19:00:00 17.7 20 Sudoeste 30 Sudoeste 0 1014.3 0.2 67
2019-04-25 18:00:00 18.6 13 Sudoeste 26 Sudoeste 0 1014.1 0.3 62
2019-04-25 17:00:00 -- -- -- -- -- -- -- -- --
2019-04-25 16:00:00 16.7 18 Sudoeste 29 Sudoeste 0 1014.1 -0.2 72
2019-04-25 15:00:00 19.9 4 Sudoeste 30 Sudoeste 0 1013.8 -0.4 51
2019-04-25 14:00:00 18.4 8 Oeste 25 Noroeste 0 1014.4 -- 48
2019-04-25 13:00:00 17.8 9 Noroeste -- -- -- 1014.3 1.7 50
2019-04-25 12:00:00 17.4 10 Noroeste -- -- -- 1014.2 1.7 58
2019-04-25 11:00:00 -- -- -- -- -- -- -- -- --
2019-04-25 10:00:00 16.8 6 Sudoeste 23 Sudoeste 0.1 1012.6 1.2 86
2019-04-25 09:00:00 15.9 18 Sudoeste 33 Sur 0 1012.5 1.4 86
2019-04-25 08:00:00 15.8 18 Sudoeste 37 Sudoeste 0.1 1012 0.8 86
2019-04-25 07:00:00 16.3 18 Sudoeste 40 Sudoeste 0 1011.4 -0.1 81
2019-04-25 06:00:00 16.1 5 Sudoeste 25 Sudoeste 0 1011.1 -0.9 82
2019-04-25 05:00:00 16.1 18 Sudoeste 36 Sudoeste 0 1011.2 -1 83
2019-04-25 04:00:00 16.1 19 Sudoeste 30 Sudoeste 0 1011.5 -0.7 82
2019-04-25 03:00:00 16.5 13 Sudoeste 23 Sur 0 1012 -0.4 76
2019-04-25 02:00:00 17 6 Noroeste 19 Noroeste 0 1012.2 -0.1 69
2019-04-25 01:00:00 16.6 6 Sur 27 Sur 0 1012.2 0.5 71
2019-04-25 00:00:00 17 14 Sur 22 Sur 0 1012.4 1.5 66
2019-04-24 23:00:00 18.1 7 Sudoeste 15 Sudoeste 0 1012.3 1.8 49
2019-04-24 22:00:00 18.1 6 Noroeste 17 Oeste 0 1011.7 1.3 48
2019-04-24 21:00:00 18.7 6 Sudoeste 23 Sur 0 1010.9 0.4 46
2019-04-24 20:00:00 19.1 12 Sudoeste 31 Sudoeste 0 1010.5 0.2 46
2019-04-24 19:00:00 17.8 13 Sur 27 Sur 0 1010.4 -0.3 60
2019-04-24 18:00:00 17.1 15 Sudoeste 35 Sudoeste 0 1010.5 -0.3 67
2019-04-24 17:00:00 17.1 22 Sudoeste 37 Sudoeste 0 1010.3 -0.6 61
2019-04-24 16:00:00 17.1 23 Sudoeste 39 Sudoeste 0 1010.7 -0.2 59
2019-04-24 15:00:00 17.3 11 Sudoeste 30 Sudoeste 0 1010.8 0.1 56
2019-04-24 14:00:00 16.1 18 Sudoeste 40 Sudoeste 0 1010.9 0.8 68
2019-04-24 13:00:00 15.5 21 Sur 35 Sudoeste 0 1010.9 1.2 70
2019-04-24 12:00:00 15.5 15 Sur 27 Sur 0 1010.7 1.9 69
2019-04-24 11:00:00 15.4 8 Sudeste 14 Sudeste 0 1010.1 1.4 67
2019-04-24 10:00:00 14.9 8 Sur 19 Este 0 1009.7 1.7 62
2019-04-24 09:00:00 14.1 4 Norte 13 Norte 0 1008.8 1.3 59
2019-04-24 08:00:00 12.1 5 Norte 13 Norte 0 1008.7 1.4 63
2019-04-24 07:00:00 12.2 4 Noroeste 9 Noroeste 0 1008 0.8 62
2019-04-24 06:00:00 12.4 6 Norte 13 Norte 0 1007.5 0.1 61
2019-04-24 05:00:00 12.8 3 Norte 12 Noroeste 0 1007.3 0.3 58
2019-04-24 04:00:00 13.3 4 Noroeste 10 Noroeste 0 1007.2 0.2 56
2019-04-24 03:00:00 13.4 6 Noroeste 14 Nordeste 0 1007.4 0.8 54
2019-04-24 02:00:00 13.4 0 Calma 9 Norte 0 1007 1.3 52
2019-04-24 01:00:00 13.6 6 Nordeste 9 Nordeste 0 1007 2.4 51
2019-04-24 00:00:00 14.6 4 Noroeste 15 Noroeste 0 1006.6 3.4 45
2019-04-23 23:00:00 15.4 6 Noroeste 17 Noroeste 0 1005.7 3.7 41
2019-04-23 22:00:00 16.1 9 Oeste 22 Oeste 0 1004.6 3.2 36
2019-04-23 21:00:00 16.9 13 Oeste 33 Oeste 0 1003.2 2.5 32
2019-04-23 20:00:00 18.4 10 Noroeste 32 Oeste 0 1002 1.2 31
2019-04-23 19:00:00 19.7 11 Oeste 32 Noroeste 0 1001.4 0.3 28
2019-04-23 18:00:00 19.8 9 Oeste 37 Sudoeste 0 1000.7 -0.4 29
2019-04-23 17:00:00 17.3 21 Sudoeste 33 Sudoeste 0 1000.8 -0.4 45
2019-04-23 16:00:00 15.8 14 Sur 35 Sudoeste 0 1001.1 -0.4 52
2019-04-23 15:00:00 15.8 22 Sudoeste 32 Sudoeste 0 1001.1 -0.4 53
2019-04-23 14:00:00 16.3 9 Norte 28 Oeste 0 1001.2 0.6 44
2019-04-23 13:00:00 14.5 10 Noroeste 22 Oeste 0 1001.5 2.5 53
2019-04-23 12:00:00 12.8 13 Noroeste 27 Noroeste 0.6 1001.5 3 68
2019-04-23 11:00:00 11.8 18 Noroeste 38 Noroeste 1.3 1000.6 2.4 75
2019-04-23 10:00:00 14.1 6 Norte 26 Sur 2.7 999 1.4 80
2019-04-23 09:00:00 16 12 Sudoeste 19 Sur 0.9 998.5 0.2 67
2019-04-23 08:00:00 16 9 Sur 23 Sur 0 998.2 -0.5 70
2019-04-23 07:00:00 16.4 5 Sudeste 26 Sudoeste 0 997.6 -1.7 71
2019-04-23 06:00:00 16.4 0 Calma 7 Sudeste 0 998.3 -1.5 65
2019-04-23 05:00:00 16 3 Norte 19 Sudoeste 0 998.7 -1.3 66
2019-04-23 04:00:00 16.2 3 Norte 9 Noroeste 0 999.3 -1.1 62
2019-04-23 03:00:00 16.4 3 Nordeste 8 Norte 0 999.8 -0.5 61
2019-04-23 02:00:00 16.9 3 Este 10 Norte 0 1000 -0.2 59
2019-04-23 01:00:00 17.8 3 Oeste 21 Sudoeste 0 1000.4 0.7 56
2019-04-23 00:00:00 17.7 3 Sur 11 Sudoeste 0 1000.3 1.4 61
2019-04-22 23:00:00 18.1 5 Sur 18 Sudoeste 0 1000.2 2.1 61
2019-04-22 22:00:00 19 12 Sudoeste 25 Noroeste 0 999.7 1.9 50
2019-04-22 21:00:00 22.1 11 Oeste 35 Oeste 0 998.9 1.1 28
2019-04-22 20:00:00 23.5 12 Oeste 34 Noroeste 0 998.1 -0.3 25
2019-04-22 19:00:00 23.6 10 Noroeste 27 Noroeste 0 997.8 -1.4 29
2019-04-22 18:00:00 24 14 Noroeste 34 Noroeste 0 997.8 -2 26
2019-04-22 17:00:00 23.6 16 Noroeste 34 Noroeste 0 998.4 -2.2 29
2019-04-22 16:00:00 24.4 10 Noroeste 33 Oeste 0 999.2 -2.2 31
2019-04-22 15:00:00 22.5 12 Noroeste 36 Oeste 0 999.8 -2.2 32
2019-04-22 14:00:00 22.1 14 Oeste 35 Noroeste 0 1000.6 -1.5 35
2019-04-22 13:00:00 20.8 15 Noroeste 40 Noroeste 0 1001.4 -0.7 37
2019-04-22 12:00:00 18.9 16 Noroeste 37 Noroeste 0 1002 0.3 44
2019-04-22 11:00:00 17.5 8 Oeste 25 Oeste 0 1002.1 0.4 49
2019-04-22 10:00:00 16 14 Oeste 28 Noroeste 0 1002.1 1.3 53
2019-04-22 09:00:00 15.7 7 Oeste 22 Noroeste 0 1001.7 0.5 56
2019-04-22 08:00:00 14.9 8 Noroeste 26 Noroeste 0 1001.7 0.2 59
2019-04-22 07:00:00 15 12 Noroeste 30 Noroeste 0 1000.8 -0.7 59
2019-04-22 06:00:00 14.2 13 Noroeste 22 Noroeste 0 1001.2 -0.8 64
2019-04-22 05:00:00 14.4 13 Oeste 43 Oeste 0 1001.5 -0.7 64
2019-04-22 04:00:00 14.5 9 Oeste 21 Oeste 0 1001.5 -1.5 66
2019-04-22 03:00:00 14.9 12 Oeste 22 Oeste 0 1002 -1.6 66
2019-04-22 02:00:00 15.3 10 Oeste 21 Sudoeste 0 1002.2 -1.7 68
2019-04-22 01:00:00 15.8 6 Oeste 17 Oeste 0 1003 -0.8 70
2019-04-22 00:00:00 15.6 9 Oeste 17 Sudoeste 0 1003.6 -0.1 78
2019-04-21 23:00:00 15.6 7 Oeste 12 Oeste 0 1003.9 -0.1 77
2019-04-21 22:00:00 15.7 5 Oeste 9 Noroeste 0 1003.8 -0.2 80
2019-04-21 21:00:00 15.5 0 Calma 5 Sudoeste 0 1003.7 0 79
2019-04-21 20:00:00 15.2 2 Sur 11 Sudoeste 0.2 1004 -0.1 80
2019-04-21 19:00:00 14.8 7 Sudoeste 13 Sudeste 0.7 1004 -0.1 80
2019-04-21 18:00:00 15.5 12 Este 17 Nordeste 0.5 1003.7 -0.2 77
2019-04-21 17:00:00 16.8 6 Este 15 Sur 1.2 1004.1 -0.3 75
2019-04-21 16:00:00 17.2 6 Sur 29 Sudoeste 0 1004.1 -1 67
2019-04-21 15:00:00 17.6 18 Sur 28 Sudoeste 0 1003.9 -1.8 67
2019-04-21 14:00:00 18.9 10 Sur 16 Sur 0 1004.4 -1.4 58
2019-04-21 13:00:00 17.6 7 Este 11 Este 0 1005.1 -0.7 58
2019-04-21 12:00:00 17.2 0 Calma 12 Oeste 0 1005.7 -0.1 63
2019-04-21 11:00:00 15.3 9 Oeste 16 Oeste 0 1005.8 0.1 68
2019-04-21 10:00:00 14.9 9 Oeste 19 Noroeste 0 1005.8 -0.3 72
2019-04-21 09:00:00 14.6 9 Oeste 22 Noroeste 0 1005.8 -0.6 72
2019-04-21 08:00:00 13.9 10 Oeste 18 Oeste 0 1005.7 -1.2 74
2019-04-21 07:00:00 13.6 8 Oeste 17 Noroeste 0 1006.1 -1.5 76
2019-04-21 06:00:00 13.8 8 Oeste 22 Oeste 0 1006.4 -2.3 77
2019-04-21 05:00:00 14.3 11 Oeste 19 Oeste 0 1006.9 -2.6 74
2019-04-21 04:00:00 14.1 7 Noroeste 17 Norte 0 1007.6 -2.5 69
2019-04-21 03:00:00 14.1 7 Noroeste 17 Noroeste 0 1008.7 -1.8 70
2019-04-21 02:00:00 14.1 9 Noroeste 17 Noroeste 0 1009.5 -1.1 74
2019-04-21 01:00:00 14.7 4 Noroeste 11 Noroeste 0 1010.1 -0.1 75
2019-04-21 00:00:00 15 3 Norte 10 Nordeste 0 1010.5 0.9 73
2019-04-20 23:00:00 15.3 5 Nordeste 12 Sudeste 0 1010.6 1.6 72
2019-04-20 22:00:00 15.7 8 Sudeste 18 Este 0 1010.2 1.6 74
2019-04-20 21:00:00 15.7 9 Este 20 Sudeste 0 1009.6 1.4 76
2019-04-20 20:00:00 15.7 13 Sudeste 21 Sudeste 0 1009 0.9 76
2019-04-20 19:00:00 16.1 12 Sudeste 18 Este 0 1008.6 0.4 67
2019-04-20 18:00:00 16.4 8 Sudeste 19 Sudeste 0 1008.2 -0.1 66
2019-04-20 17:00:00 16.4 9 Sudeste 17 Sur 0 1008.1 -0.1 61
2019-04-20 16:00:00 17.3 12 Sur 19 Sudeste 0 1008.2 0 63
2019-04-20 15:00:00 16.3 12 Sudeste 16 Sudeste 0 1008.3 -0.3 67
2019-04-20 14:00:00 16.2 9 Sudeste 14 Sudeste 0 1008.2 -0.6 61
2019-04-20 13:00:00 17.7 4 Sudeste 15 Nordeste 0 1008.2 -0.9 55
2019-04-20 12:00:00 17.7 5 Sur 12 Oeste 0 1008.6 -0.4 56
2019-04-20 11:00:00 15.9 5 Oeste 17 Oeste 0 1008.8 0.5 64
2019-04-20 10:00:00 14.7 4 Oeste 15 Oeste 0 1009.1 0.9 68
2019-04-20 09:00:00 13.5 7 Oeste 18 Oeste 0 1009 0.3 70
2019-04-20 08:00:00 13.2 8 Oeste 19 Sudoeste 0 1008.3 -1.4 70
2019-04-20 07:00:00 13.1 8 Oeste 15 Oeste 0 1008.2 -2.2 69
2019-04-20 06:00:00 13.5 8 Noroeste 18 Noroeste 0 1008.7 -2.4 67
2019-04-20 05:00:00 13.3 7 Noroeste 13 Noroeste 0 1009.7 -2.1 66
2019-04-20 04:00:00 13.2 6 Noroeste 16 Noroeste 0 1010.4 -2 67
2019-04-20 03:00:00 13.4 7 Norte 13 Noroeste 0 1011.1 -1.5 67
2019-04-20 02:00:00 14.3 0 Calma 13 Noroeste 0 1011.8 -0.9 66
2019-04-20 01:00:00 14.3 6 Noroeste 13 Noroeste 0 1012.4 0 65
2019-04-20 00:00:00 14.7 6 Norte 13 Oeste 0 1012.6 0.6 64
2019-04-19 23:00:00 15.5 4 Noroeste 10 Norte 0 1012.7 1.3 64
2019-04-19 22:00:00 15.6 0 Calma 5 Sur 0 1012.4 1.4 65
2019-04-19 21:00:00 16.1 5 Sudeste 10 Sudeste 0 1012 1.4 64
2019-04-19 20:00:00 16.3 6 Sudeste 12 Este 0 1011.4 0.8 62
2019-04-19 19:00:00 17.1 6 Este 12 Sudeste 0 1011 0.2 59
2019-04-19 18:00:00 16.7 8 Sudeste 12 Sudeste 0 1010.6 -0.2 52
2019-04-19 17:00:00 19.1 7 Sudeste 15 Sur 0 1010.6 -0.6 51
2019-04-19 16:00:00 17.7 13 Sur 19 Sur 0 1010.8 -0.9 56
2019-04-19 15:00:00 18.1 10 Sur 17 Sur 0 1010.8 -0.7 49
2019-04-19 14:00:00 18.1 6 Sudeste 19 Nordeste 0 1011.2 0.5 48
2019-04-19 13:00:00 16.6 13 Este 23 Este 0 1011.7 1.5 52
2019-04-19 12:00:00 16.6 12 Este 19 Este 0 1011.5 0.7 48
2019-04-19 11:00:00 19.2 6 Este 16 Este 0 1010.7 -0.4 46
2019-04-19 10:00:00 17.1 4 Oeste 13 Sudoeste 0 1010.2 -0.7 56
2019-04-19 09:00:00 14.4 6 Noroeste 12 Oeste 0 1010.8 -0.1 64
2019-04-19 08:00:00 12.7 4 Oeste 11 Oeste 0 1011.1 -0.1 69
2019-04-19 07:00:00 12.6 7 Oeste 21 Sudoeste 0 1010.9 -0.6 70
2019-04-19 06:00:00 13 8 Oeste 18 Sudoeste 0 1010.9 -0.9 68
2019-04-19 05:00:00 13.3 8 Oeste 15 Norte 0 1011.2 -1.3 64
2019-04-19 04:00:00 13.2 7 Noroeste 11 Norte 0 1011.5 -0.7 64
2019-04-19 03:00:00 13.2 5 Noroeste 12 Noroeste 0 1011.8 0.2 67
2019-04-19 02:00:00 13.3 5 Noroeste 11 Norte 0 1012.5 1.1 64
2019-04-19 01:00:00 13.4 5 Noroeste 17 Noroeste 0 1012.2 1 65
2019-04-19 00:00:00 13.5 11 Noroeste 19 Noroeste 0 1011.6 0.7 67
2019-04-18 23:00:00 13.8 10 Noroeste 18 Oeste 0 1011.4 1.2 68
2019-04-18 22:00:00 13.7 9 Noroeste 21 Norte 0.6 1011.2 1.4 70
2019-04-18 21:00:00 14.1 13 Noroeste 34 Norte 0.1 1010.9 -- 64
2019-04-18 20:00:00 16.2 5 Nordeste -- -- -- 1010.2 -- 67
2019-04-18 19:00:00 17 6 Sur -- -- -- 1009.8 -- 60
2019-04-18 18:00:00 -- -- -- -- -- -- -- -- --
2019-04-18 17:00:00 -- -- -- -- -- -- -- -- --
2019-04-18 16:00:00 -- -- -- -- -- -- -- -- --
2019-04-18 15:00:00 -- -- -- -- -- -- -- -- --
2019-04-18 14:00:00 -- -- -- -- -- -- -- -- --
2019-04-18 13:00:00 -- -- -- -- -- -- -- -- --
2019-04-18 12:00:00 -- -- -- -- -- -- -- -- --
2019-04-18 11:00:00 -- -- -- -- -- -- -- -- --
2019-04-18 10:00:00 -- -- -- -- -- -- -- -- --
2019-04-18 09:00:00 -- -- -- -- -- -- -- -- --
2019-04-18 08:00:00 -- -- -- -- -- -- -- -- --
2019-04-18 07:00:00 -- -- -- -- -- -- -- -- --
2019-04-18 06:00:00 -- -- -- -- -- -- -- -- --
2019-04-18 05:00:00 -- -- -- -- -- -- -- -- --
2019-04-18 04:00:00 -- -- -- -- -- -- -- -- --
2019-04-18 03:00:00 -- -- -- -- -- -- -- -- --
2019-04-18 02:00:00 -- -- -- -- -- -- -- -- --
2019-04-18 01:00:00 -- -- -- -- -- -- -- -- --
2019-04-18 00:00:00 -- -- -- -- -- -- -- -- --
2019-04-17 23:00:00 -- -- -- -- -- -- -- -- --
2019-04-17 22:00:00 -- -- -- -- -- -- -- -- --
2019-04-17 21:00:00 -- -- -- -- -- -- -- -- --
2019-04-17 20:00:00 -- -- -- -- -- -- -- -- --
2019-04-17 19:00:00 -- -- -- -- -- -- -- -- --
2019-04-17 18:00:00 -- -- -- -- -- -- -- -- --
2019-04-17 17:00:00 -- -- -- -- -- -- -- -- --
2019-04-17 16:00:00 -- -- -- -- -- -- -- -- --
2019-04-17 15:00:00 -- -- -- -- -- -- -- -- --
2019-04-17 14:00:00 -- -- -- -- -- -- -- -- --
2019-04-17 13:00:00 -- -- -- -- -- -- -- -- --
2019-04-17 12:00:00 -- -- -- -- -- -- -- -- --
2019-04-17 11:00:00 -- -- -- -- -- -- -- -- --
2019-04-17 10:00:00 -- -- -- -- -- -- -- -- --
2019-04-17 09:00:00 -- -- -- -- -- -- -- -- --
2019-04-17 08:00:00 -- -- -- -- -- -- -- -- --
2019-04-17 07:00:00 -- -- -- -- -- -- -- -- --
2019-04-17 06:00:00 -- -- -- -- -- -- -- -- --
2019-04-17 05:00:00 -- -- -- -- -- -- -- -- --
2019-04-17 04:00:00 -- -- -- -- -- -- -- -- --
2019-04-17 03:00:00 -- -- -- -- -- -- -- -- --
2019-04-17 02:00:00 -- -- -- -- -- -- -- -- --
2019-04-17 01:00:00 -- -- -- -- -- -- -- -- --
2019-04-17 00:00:00 -- -- -- -- -- -- -- -- --
2019-04-16 23:00:00 -- -- -- -- -- -- -- -- --
2019-04-16 22:00:00 -- -- -- -- -- -- -- -- --
2019-04-16 21:00:00 -- -- -- -- -- -- -- -- --
2019-04-16 20:00:00 -- -- -- -- -- -- -- -- --
2019-04-16 19:00:00 -- -- -- -- -- -- -- -- --
2019-04-16 18:00:00 -- -- -- -- -- -- -- -- --
2019-04-16 17:00:00 -- -- -- -- -- -- -- -- --
2019-04-16 16:00:00 -- -- -- -- -- -- -- -- --
2019-04-16 15:00:00 -- -- -- -- -- -- -- -- --
2019-04-16 14:00:00 -- -- -- -- -- -- -- -- --
2019-04-16 13:00:00 -- -- -- -- -- -- -- -- --
2019-04-16 12:00:00 -- -- -- -- -- -- -- -- --
2019-04-16 11:00:00 -- -- -- -- -- -- -- -- --
2019-04-16 10:00:00 -- -- -- -- -- -- -- -- --
2019-04-16 09:00:00 -- -- -- -- -- -- -- -- --
2019-04-16 08:00:00 -- -- -- -- -- -- -- -- --
2019-04-16 07:00:00 -- -- -- -- -- -- -- -- --
2019-04-16 06:00:00 -- -- -- -- -- -- -- -- --
2019-04-16 05:00:00 -- -- -- -- -- -- -- -- --
2019-04-16 04:00:00 -- -- -- -- -- -- -- -- --
2019-04-16 03:00:00 -- -- -- -- -- -- -- -- --
2019-04-16 02:00:00 -- -- -- -- -- -- -- -- --
2019-04-16 01:00:00 -- -- -- -- -- -- -- -- --
2019-04-16 00:00:00 -- -- -- -- -- -- -- -- --
2019-04-15 23:00:00 -- -- -- -- -- -- -- -- --
2019-04-15 22:00:00 -- -- -- -- -- -- -- -- --
2019-04-15 21:00:00 -- -- -- -- -- -- -- -- --
2019-04-15 20:00:00 -- -- -- -- -- -- -- -- --
2019-04-15 19:00:00 -- -- -- -- -- -- -- -- --
2019-04-15 18:00:00 -- -- -- -- -- -- -- -- --
2019-04-15 17:00:00 -- -- -- -- -- -- -- -- --
2019-04-15 16:00:00 -- -- -- -- -- -- -- -- --
2019-04-15 15:00:00 -- -- -- -- -- -- -- -- --
2019-04-15 14:00:00 -- -- -- -- -- -- -- -- --
2019-04-15 13:00:00 -- -- -- -- -- -- -- -- --
2019-04-15 12:00:00 -- -- -- -- -- -- -- -- --
2019-04-15 11:00:00 -- -- -- -- -- -- -- -- --
2019-04-15 10:00:00 -- -- -- -- -- -- -- -- --
2019-04-15 09:00:00 -- -- -- -- -- -- -- -- --
2019-04-15 08:00:00 -- -- -- -- -- -- -- -- --
2019-04-15 07:00:00 -- -- -- -- -- -- -- -- --
2019-04-15 06:00:00 -- -- -- -- -- -- -- -- --
2019-04-15 05:00:00 -- -- -- -- -- -- -- -- --
2019-04-15 04:00:00 -- -- -- -- -- -- -- -- --
2019-04-15 03:00:00 -- -- -- -- -- -- -- -- --
2019-04-15 02:00:00 -- -- -- -- -- -- -- -- --
2019-04-15 01:00:00 -- -- -- -- -- -- -- -- --
2019-04-15 00:00:00 -- -- -- -- -- -- -- -- --
2019-04-14 23:00:00 -- -- -- -- -- -- -- -- --
2019-04-14 22:00:00 -- -- -- -- -- -- -- -- --
2019-04-14 21:00:00 -- -- -- -- -- -- -- -- --
2019-04-14 20:00:00 -- -- -- -- -- -- -- -- --
2019-04-14 19:00:00 -- -- -- -- -- -- -- -- --
2019-04-14 18:00:00 -- -- -- -- -- -- -- -- --
2019-04-14 17:00:00 -- -- -- -- -- -- -- -- --
2019-04-14 16:00:00 -- -- -- -- -- -- -- -- --
2019-04-14 15:00:00 -- -- -- -- -- -- -- -- --
2019-04-14 14:00:00 -- -- -- -- -- -- -- -- --
2019-04-14 13:00:00 -- -- -- -- -- -- -- -- --
2019-04-14 12:00:00 -- -- -- -- -- -- -- -- --
2019-04-14 11:00:00 -- -- -- -- -- -- -- -- --
2019-04-14 10:00:00 -- -- -- -- -- -- -- -- --
2019-04-14 09:00:00 -- -- -- -- -- -- -- -- --
2019-04-14 08:00:00 -- -- -- -- -- -- -- -- --
2019-04-14 07:00:00 -- -- -- -- -- -- -- -- --
2019-04-14 06:00:00 -- -- -- -- -- -- -- -- --
2019-04-14 05:00:00 -- -- -- -- -- -- -- -- --
2019-04-14 04:00:00 -- -- -- -- -- -- -- -- --
2019-04-14 03:00:00 -- -- -- -- -- -- -- -- --
2019-04-14 02:00:00 -- -- -- -- -- -- -- -- --
2019-04-14 01:00:00 -- -- -- -- -- -- -- -- --
2019-04-14 00:00:00 -- -- -- -- -- -- -- -- --
2019-04-13 23:00:00 -- -- -- -- -- -- -- -- --
2019-04-13 22:00:00 -- -- -- -- -- -- -- -- --
2019-04-13 21:00:00 -- -- -- -- -- -- -- -- --
2019-04-13 20:00:00 -- -- -- -- -- -- -- -- --
2019-04-13 19:00:00 -- -- -- -- -- -- -- -- --
2019-04-13 18:00:00 -- -- -- -- -- -- -- -- --
2019-04-13 17:00:00 -- -- -- -- -- -- -- -- --
2019-04-13 16:00:00 -- -- -- -- -- -- -- -- --
2019-04-13 15:00:00 -- -- -- -- -- -- -- -- --
2019-04-13 14:00:00 -- -- -- -- -- -- -- -- --
2019-04-13 13:00:00 -- -- -- -- -- -- -- -- --
2019-04-13 12:00:00 -- -- -- -- -- -- -- -- --
2019-04-13 11:00:00 -- -- -- -- -- -- -- -- --
2019-04-13 10:00:00 -- -- -- -- -- -- -- -- --
2019-04-13 09:00:00 -- -- -- -- -- -- -- -- --
2019-04-13 08:00:00 -- -- -- -- -- -- -- -- --
2019-04-13 07:00:00 -- -- -- -- -- -- -- -- --
2019-04-13 06:00:00 -- -- -- -- -- -- -- -- --
2019-04-13 05:00:00 -- -- -- -- -- -- -- -- --
2019-04-13 04:00:00 -- -- -- -- -- -- -- -- --
2019-04-13 03:00:00 -- -- -- -- -- -- -- -- --
2019-04-13 02:00:00 -- -- -- -- -- -- -- -- --
2019-04-13 01:00:00 -- -- -- -- -- -- -- -- --
2019-04-13 00:00:00 -- -- -- -- -- -- -- -- --
2019-04-12 23:00:00 -- -- -- -- -- -- -- -- --
2019-04-12 22:00:00 -- -- -- -- -- -- -- -- --
2019-04-12 21:00:00 -- -- -- -- -- -- -- -- --
2019-04-12 20:00:00 -- -- -- -- -- -- -- -- --
2019-04-12 19:00:00 -- -- -- -- -- -- -- -- --
2019-04-12 18:00:00 -- -- -- -- -- -- -- -- --
2019-04-12 17:00:00 -- -- -- -- -- -- -- -- --
2019-04-12 16:00:00 -- -- -- -- -- -- -- -- --
2019-04-12 15:00:00 -- -- -- -- -- -- -- -- --
2019-04-12 14:00:00 -- -- -- -- -- -- -- -- --
2019-04-12 13:00:00 -- -- -- -- -- -- -- -- --
2019-04-12 12:00:00 -- -- -- -- -- -- -- -- --
2019-04-12 11:00:00 -- -- -- -- -- -- -- -- --
2019-04-12 10:00:00 -- -- -- -- -- -- -- -- --
2019-04-12 09:00:00 -- -- -- -- -- -- -- -- --
2019-04-12 08:00:00 -- -- -- -- -- -- -- -- --
2019-04-12 07:00:00 -- -- -- -- -- -- -- -- --
2019-04-12 06:00:00 -- -- -- -- -- -- -- -- --
2019-04-12 05:00:00 -- -- -- -- -- -- -- -- --
2019-04-12 04:00:00 -- -- -- -- -- -- -- -- --
2019-04-12 03:00:00 -- -- -- -- -- -- -- -- --
2019-04-12 02:00:00 -- -- -- -- -- -- -- -- --
2019-04-12 01:00:00 -- -- -- -- -- -- -- -- --
2019-04-12 00:00:00 -- -- -- -- -- -- -- -- --
2019-04-11 23:00:00 -- -- -- -- -- -- -- -- --
2019-04-11 22:00:00 -- -- -- -- -- -- -- -- --
2019-04-11 21:00:00 -- -- -- -- -- -- -- -- --
2019-04-11 20:00:00 -- -- -- -- -- -- -- -- --
2019-04-11 19:00:00 -- -- -- -- -- -- -- -- --
2019-04-11 18:00:00 -- -- -- -- -- -- -- -- --
2019-04-11 17:00:00 -- -- -- -- -- -- -- -- --
2019-04-11 16:00:00 -- -- -- -- -- -- -- -- --
2019-04-11 15:00:00 -- -- -- -- -- -- -- -- --
2019-04-11 14:00:00 -- -- -- -- -- -- -- -- --
2019-04-11 13:00:00 -- -- -- -- -- -- -- -- --
2019-04-11 12:00:00 -- -- -- -- -- -- -- -- --
2019-04-11 11:00:00 -- -- -- -- -- -- -- -- --
2019-04-11 10:00:00 -- -- -- -- -- -- -- -- --
2019-04-11 09:00:00 -- -- -- -- -- -- -- -- --
2019-04-11 08:00:00 -- -- -- -- -- -- -- -- --
2019-04-11 07:00:00 -- -- -- -- -- -- -- -- --
2019-04-11 06:00:00 -- -- -- -- -- -- -- -- --
2019-04-11 05:00:00 -- -- -- -- -- -- -- -- --
2019-04-11 04:00:00 -- -- -- -- -- -- -- -- --
2019-04-11 03:00:00 -- -- -- -- -- -- -- -- --
2019-04-11 02:00:00 -- -- -- -- -- -- -- -- --
2019-04-11 01:00:00 -- -- -- -- -- -- -- -- --
2019-04-11 00:00:00 -- -- -- -- -- -- -- -- --
2019-04-10 23:00:00 -- -- -- -- -- -- -- -- --
2019-04-10 22:00:00 -- -- -- -- -- -- -- -- --
2019-04-10 21:00:00 -- -- -- -- -- -- -- -- --
2019-04-10 20:00:00 -- -- -- -- -- -- -- -- --
2019-04-10 19:00:00 -- -- -- -- -- -- -- -- --
2019-04-10 18:00:00 -- -- -- -- -- -- -- -- --
2019-04-10 17:00:00 -- -- -- -- -- -- -- -- --
2019-04-10 16:00:00 -- -- -- -- -- -- -- -- --
2019-04-10 15:00:00 -- -- -- -- -- -- -- -- --
2019-04-10 14:00:00 -- -- -- -- -- -- -- -- --
2019-04-10 13:00:00 -- -- -- -- -- -- -- -- --
2019-04-10 12:00:00 -- -- -- -- -- -- -- -- --
2019-04-10 11:00:00 -- -- -- -- -- -- -- -- --
2019-04-10 10:00:00 -- -- -- -- -- -- -- -- --
2019-04-10 09:00:00 -- -- -- -- -- -- -- -- --
2019-04-10 08:00:00 -- -- -- -- -- -- -- -- --
2019-04-10 07:00:00 -- -- -- -- -- -- -- -- --
2019-04-10 06:00:00 -- -- -- -- -- -- -- -- --
2019-04-10 05:00:00 -- -- -- -- -- -- -- -- --
2019-04-10 04:00:00 -- -- -- -- -- -- -- -- --
2019-04-10 03:00:00 -- -- -- -- -- -- -- -- --
2019-04-10 02:00:00 -- -- -- -- -- -- -- -- --
2019-04-10 01:00:00 -- -- -- -- -- -- -- -- --
2019-04-10 00:00:00 -- -- -- -- -- -- -- -- --
2019-04-09 23:00:00 -- -- -- -- -- -- -- -- --
2019-04-09 22:00:00 -- -- -- -- -- -- -- -- --
2019-04-09 21:00:00 -- -- -- -- -- -- -- -- --
2019-04-09 20:00:00 -- -- -- -- -- -- -- -- --
2019-04-09 19:00:00 -- -- -- -- -- -- -- -- --
2019-04-09 18:00:00 -- -- -- -- -- -- -- -- --
2019-04-09 17:00:00 -- -- -- -- -- -- -- -- --
2019-04-09 16:00:00 -- -- -- -- -- -- -- -- --
2019-04-09 15:00:00 -- -- -- -- -- -- -- -- --
2019-04-09 14:00:00 -- -- -- -- -- -- -- -- --
2019-04-09 13:00:00 -- -- -- -- -- -- -- -- --
2019-04-09 12:00:00 -- -- -- -- -- -- -- -- --
2019-04-09 11:00:00 -- -- -- -- -- -- -- -- --
2019-04-09 10:00:00 -- -- -- -- -- -- -- -- --
2019-04-09 09:00:00 -- -- -- -- -- -- -- -- --
2019-04-09 08:00:00 -- -- -- -- -- -- -- -- --
2019-04-09 07:00:00 -- -- -- -- -- -- -- -- --
2019-04-09 06:00:00 -- -- -- -- -- -- -- -- --
2019-04-09 05:00:00 -- -- -- -- -- -- -- -- --
2019-04-09 04:00:00 -- -- -- -- -- -- -- -- --
2019-04-09 03:00:00 -- -- -- -- -- -- -- -- --
2019-04-09 02:00:00 -- -- -- -- -- -- -- -- --
2019-04-09 01:00:00 -- -- -- -- -- -- -- -- --
2019-04-09 00:00:00 -- -- -- -- -- -- -- -- --
2019-04-08 23:00:00 -- -- -- -- -- -- -- -- --
2019-04-08 22:00:00 -- -- -- -- -- -- -- -- --
2019-04-08 21:00:00 -- -- -- -- -- -- -- -- --
2019-04-08 20:00:00 -- -- -- -- -- -- -- -- --
2019-04-08 19:00:00 -- -- -- -- -- -- -- -- --
2019-04-08 18:00:00 -- -- -- -- -- -- -- -- --
2019-04-08 17:00:00 -- -- -- -- -- -- -- -- --
2019-04-08 16:00:00 -- -- -- -- -- -- -- -- --
2019-04-08 15:00:00 -- -- -- -- -- -- -- -- --
2019-04-08 14:00:00 -- -- -- -- -- -- -- -- --
2019-04-08 13:00:00 -- -- -- -- -- -- -- -- --
2019-04-08 12:00:00 -- -- -- -- -- -- -- -- --
2019-04-08 11:00:00 -- -- -- -- -- -- -- -- --
2019-04-08 10:00:00 -- -- -- -- -- -- -- -- --
2019-04-08 09:00:00 -- -- -- -- -- -- -- -- --
2019-04-08 08:00:00 -- -- -- -- -- -- -- -- --
2019-04-08 07:00:00 -- -- -- -- -- -- -- -- --
2019-04-08 06:00:00 -- -- -- -- -- -- -- -- --
2019-04-08 05:00:00 -- -- -- -- -- -- -- -- --
2019-04-08 04:00:00 -- -- -- -- -- -- -- -- --
2019-04-08 03:00:00 -- -- -- -- -- -- -- -- --
2019-04-08 02:00:00 -- -- -- -- -- -- -- -- --
2019-04-08 01:00:00 -- -- -- -- -- -- -- -- --
2019-04-08 00:00:00 -- -- -- -- -- -- -- -- --
2019-04-07 23:00:00 -- -- -- -- -- -- -- -- --
2019-04-07 22:00:00 -- -- -- -- -- -- -- -- --
2019-04-07 21:00:00 -- -- -- -- -- -- -- -- --
2019-04-07 20:00:00 -- -- -- -- -- -- -- -- --
2019-04-07 19:00:00 -- -- -- -- -- -- -- -- --
2019-04-07 18:00:00 -- -- -- -- -- -- -- -- --
2019-04-07 17:00:00 -- -- -- -- -- -- -- -- --
2019-04-07 16:00:00 -- -- -- -- -- -- -- -- --
2019-04-07 15:00:00 -- -- -- -- -- -- -- -- --
2019-04-07 14:00:00 -- -- -- -- -- -- -- -- --
2019-04-07 13:00:00 -- -- -- -- -- -- -- -- --
2019-04-07 12:00:00 -- -- -- -- -- -- -- -- --
2019-04-07 11:00:00 -- -- -- -- -- -- -- -- --
2019-04-07 10:00:00 -- -- -- -- -- -- -- -- --
2019-04-07 09:00:00 -- -- -- -- -- -- -- -- --
2019-04-07 08:00:00 -- -- -- -- -- -- -- -- --
2019-04-07 07:00:00 -- -- -- -- -- -- -- -- --
2019-04-07 06:00:00 -- -- -- -- -- -- -- -- --
2019-04-07 05:00:00 -- -- -- -- -- -- -- -- --
2019-04-07 04:00:00 -- -- -- -- -- -- -- -- --
2019-04-07 03:00:00 -- -- -- -- -- -- -- -- --
2019-04-07 02:00:00 -- -- -- -- -- -- -- -- --
2019-04-07 01:00:00 -- -- -- -- -- -- -- -- --
2019-04-07 00:00:00 -- -- -- -- -- -- -- -- --
2019-04-06 23:00:00 -- -- -- -- -- -- -- -- --
2019-04-06 22:00:00 -- -- -- -- -- -- -- -- --
2019-04-06 21:00:00 -- -- -- -- -- -- -- -- --
2019-04-06 20:00:00 -- -- -- -- -- -- -- -- --
2019-04-06 19:00:00 -- -- -- -- -- -- -- -- --
2019-04-06 18:00:00 -- -- -- -- -- -- -- -- --
2019-04-06 17:00:00 -- -- -- -- -- -- -- -- --
2019-04-06 16:00:00 -- -- -- -- -- -- -- -- --
2019-04-06 15:00:00 -- -- -- -- -- -- -- -- --
2019-04-06 14:00:00 -- -- -- -- -- -- -- -- --
2019-04-06 13:00:00 -- -- -- -- -- -- -- -- --
2019-04-06 12:00:00 -- -- -- -- -- -- -- -- --
2019-04-06 11:00:00 -- -- -- -- -- -- -- -- --
2019-04-06 10:00:00 -- -- -- -- -- -- -- -- --
2019-04-06 09:00:00 -- -- -- -- -- -- -- -- --
2019-04-06 08:00:00 -- -- -- -- -- -- -- -- --
2019-04-06 07:00:00 -- -- -- -- -- -- -- -- --
2019-04-06 06:00:00 -- -- -- -- -- -- -- -- --
2019-04-06 05:00:00 -- -- -- -- -- -- -- -- --
2019-04-06 04:00:00 -- -- -- -- -- -- -- -- --
2019-04-06 03:00:00 -- -- -- -- -- -- -- -- --
2019-04-06 02:00:00 -- -- -- -- -- -- -- -- --
2019-04-06 01:00:00 -- -- -- -- -- -- -- -- --
2019-04-06 00:00:00 -- -- -- -- -- -- -- -- --
2019-04-05 23:00:00 -- -- -- -- -- -- -- -- --
2019-04-05 22:00:00 -- -- -- -- -- -- -- -- --
2019-04-05 21:00:00 -- -- -- -- -- -- -- -- --
2019-04-05 20:00:00 -- -- -- -- -- -- -- -- --
2019-04-05 19:00:00 -- -- -- -- -- -- -- -- --
2019-04-05 18:00:00 -- -- -- -- -- -- -- -- --
2019-04-05 17:00:00 -- -- -- -- -- -- -- -- --
2019-04-05 16:00:00 -- -- -- -- -- -- -- -- --
2019-04-05 15:00:00 -- -- -- -- -- -- -- -- --
2019-04-05 14:00:00 -- -- -- -- -- -- -- -- --
2019-04-05 13:00:00 -- -- -- -- -- -- -- -- --
2019-04-05 12:00:00 -- -- -- -- -- -- -- -- --
2019-04-05 11:00:00 -- -- -- -- -- -- -- -- --
2019-04-05 10:00:00 -- -- -- -- -- -- -- -- --
2019-04-05 09:00:00 -- -- -- -- -- -- -- -- --
2019-04-05 08:00:00 -- -- -- -- -- -- -- -- --
2019-04-05 07:00:00 -- -- -- -- -- -- -- -- --
2019-04-05 06:00:00 -- -- -- -- -- -- -- -- --
2019-04-05 05:00:00 -- -- -- -- -- -- -- -- --
2019-04-05 04:00:00 -- -- -- -- -- -- -- -- --
2019-04-05 03:00:00 -- -- -- -- -- -- -- -- --
2019-04-05 02:00:00 -- -- -- -- -- -- -- -- --
2019-04-05 01:00:00 -- -- -- -- -- -- -- -- --
2019-04-05 00:00:00 -- -- -- -- -- -- -- -- --
2019-04-04 23:00:00 -- -- -- -- -- -- -- -- --
2019-04-04 22:00:00 -- -- -- -- -- -- -- -- --
2019-04-04 21:00:00 -- -- -- -- -- -- -- -- --
2019-04-04 20:00:00 -- -- -- -- -- -- -- -- --
2019-04-04 19:00:00 -- -- -- -- -- -- -- -- --
2019-04-04 18:00:00 -- -- -- -- -- -- -- -- --
2019-04-04 17:00:00 -- -- -- -- -- -- -- -- --
2019-04-04 16:00:00 -- -- -- -- -- -- -- -- --
2019-04-04 15:00:00 -- -- -- -- -- -- -- -- --
2019-04-04 14:00:00 -- -- -- -- -- -- -- -- --
2019-04-04 13:00:00 -- -- -- -- -- -- -- -- --
2019-04-04 12:00:00 -- -- -- -- -- -- -- -- --
2019-04-04 11:00:00 -- -- -- -- -- -- -- -- --
2019-04-04 10:00:00 -- -- -- -- -- -- -- -- --
2019-04-04 09:00:00 -- -- -- -- -- -- -- -- --
2019-04-04 08:00:00 -- -- -- -- -- -- -- -- --
2019-04-04 07:00:00 -- -- -- -- -- -- -- -- --
2019-04-04 06:00:00 -- -- -- -- -- -- -- -- --
2019-04-04 05:00:00 -- -- -- -- -- -- -- -- --
2019-04-04 04:00:00 -- -- -- -- -- -- -- -- --
2019-04-04 03:00:00 -- -- -- -- -- -- -- -- --
2019-04-04 02:00:00 -- -- -- -- -- -- -- -- --
2019-04-04 01:00:00 -- -- -- -- -- -- -- -- --
2019-04-04 00:00:00 -- -- -- -- -- -- -- -- --
2019-04-03 23:00:00 -- -- -- -- -- -- -- -- --
2019-04-03 22:00:00 -- -- -- -- -- -- -- -- --
2019-04-03 21:00:00 -- -- -- -- -- -- -- -- --
2019-04-03 20:00:00 -- -- -- -- -- -- -- -- --
2019-04-03 19:00:00 -- -- -- -- -- -- -- -- --
2019-04-03 18:00:00 -- -- -- -- -- -- -- -- --
2019-04-03 17:00:00 -- -- -- -- -- -- -- -- --
2019-04-03 16:00:00 -- -- -- -- -- -- -- -- --
2019-04-03 15:00:00 -- -- -- -- -- -- -- -- --
2019-04-03 14:00:00 -- -- -- -- -- -- -- -- --
2019-04-03 13:00:00 -- -- -- -- -- -- -- -- --
2019-04-03 12:00:00 -- -- -- -- -- -- -- -- --
2019-04-03 11:00:00 -- -- -- -- -- -- -- -- --
2019-04-03 10:00:00 -- -- -- -- -- -- -- -- --
2019-04-03 09:00:00 -- -- -- -- -- -- -- -- --
2019-04-03 08:00:00 -- -- -- -- -- -- -- -- --
2019-04-03 07:00:00 -- -- -- -- -- -- -- -- --
2019-04-03 06:00:00 -- -- -- -- -- -- -- -- --
2019-04-03 05:00:00 -- -- -- -- -- -- -- -- --
2019-04-03 04:00:00 -- -- -- -- -- -- -- -- --
2019-04-03 03:00:00 -- -- -- -- -- -- -- -- --
2019-04-03 02:00:00 -- -- -- -- -- -- -- -- --
2019-04-03 01:00:00 -- -- -- -- -- -- -- -- --
2019-04-03 00:00:00 -- -- -- -- -- -- -- -- --
2019-04-02 23:00:00 -- -- -- -- -- -- -- -- --
2019-04-02 22:00:00 -- -- -- -- -- -- -- -- --
2019-04-02 21:00:00 -- -- -- -- -- -- -- -- --
2019-04-02 20:00:00 -- -- -- -- -- -- -- -- --
2019-04-02 19:00:00 -- -- -- -- -- -- -- -- --
2019-04-02 18:00:00 -- -- -- -- -- -- -- -- --
2019-04-02 17:00:00 -- -- -- -- -- -- -- -- --
2019-04-02 16:00:00 -- -- -- -- -- -- -- -- --
2019-04-02 15:00:00 -- -- -- -- -- -- -- -- --
2019-04-02 14:00:00 -- -- -- -- -- -- -- -- --
2019-04-02 13:00:00 -- -- -- -- -- -- -- -- --
2019-04-02 12:00:00 -- -- -- -- -- -- -- -- --
2019-04-02 11:00:00 -- -- -- -- -- -- -- -- --
2019-04-02 10:00:00 -- -- -- -- -- -- -- -- --
2019-04-02 09:00:00 -- -- -- -- -- -- -- -- --
2019-04-02 08:00:00 -- -- -- -- -- -- -- -- --
2019-04-02 07:00:00 -- -- -- -- -- -- -- -- --
2019-04-02 06:00:00 -- -- -- -- -- -- -- -- --
2019-04-02 05:00:00 -- -- -- -- -- -- -- -- --
2019-04-02 04:00:00 -- -- -- -- -- -- -- -- --
2019-04-02 03:00:00 -- -- -- -- -- -- -- -- --
2019-04-02 02:00:00 -- -- -- -- -- -- -- -- --
2019-04-02 01:00:00 -- -- -- -- -- -- -- -- --
2019-04-02 00:00:00 -- -- -- -- -- -- -- -- --
2019-04-01 23:00:00 -- -- -- -- -- -- -- -- --
2019-04-01 22:00:00 -- -- -- -- -- -- -- -- --
2019-04-01 21:00:00 -- -- -- -- -- -- -- -- --
2019-04-01 20:00:00 -- -- -- -- -- -- -- -- --
2019-04-01 19:00:00 -- -- -- -- -- -- -- -- --
2019-04-01 18:00:00 -- -- -- -- -- -- -- -- --
2019-04-01 17:00:00 -- -- -- -- -- -- -- -- --
2019-04-01 16:00:00 -- -- -- -- -- -- -- -- --
2019-04-01 15:00:00 -- -- -- -- -- -- -- -- --
2019-04-01 14:00:00 -- -- -- -- -- -- -- -- --
2019-04-01 13:00:00 -- -- -- -- -- -- -- -- --
2019-04-01 12:00:00 -- -- -- -- -- -- -- -- --
2019-04-01 11:00:00 -- -- -- -- -- -- -- -- --
2019-04-01 10:00:00 -- -- -- -- -- -- -- -- --
2019-04-01 09:00:00 -- -- -- -- -- -- -- -- --
2019-04-01 08:00:00 -- -- -- -- -- -- -- -- --
2019-04-01 07:00:00 -- -- -- -- -- -- -- -- --
2019-04-01 06:00:00 -- -- -- -- -- -- -- -- --
2019-04-01 05:00:00 -- -- -- -- -- -- -- -- --
2019-04-01 04:00:00 -- -- -- -- -- -- -- -- --
2019-04-01 03:00:00 -- -- -- -- -- -- -- -- --
2019-04-01 02:00:00 -- -- -- -- -- -- -- -- --
2019-04-01 01:00:00 -- -- -- -- -- -- -- -- --
2019-04-01 00:00:00 -- -- -- -- -- -- -- -- --
2019-03-31 23:00:00 -- -- -- -- -- -- -- -- --
2019-03-31 22:00:00 -- -- -- -- -- -- -- -- --
2019-03-31 21:00:00 -- -- -- -- -- -- -- -- --
2019-03-31 20:00:00 -- -- -- -- -- -- -- -- --
2019-03-31 19:00:00 -- -- -- -- -- -- -- -- --
2019-03-31 18:00:00 -- -- -- -- -- -- -- -- --
2019-03-31 17:00:00 -- -- -- -- -- -- -- -- --
2019-03-31 16:00:00 -- -- -- -- -- -- -- -- --
2019-03-31 15:00:00 -- -- -- -- -- -- -- -- --
2019-03-31 14:00:00 -- -- -- -- -- -- -- -- --
2019-03-31 13:00:00 -- -- -- -- -- -- -- -- --
2019-03-31 12:00:00 -- -- -- -- -- -- -- -- --
2019-03-31 11:00:00 -- -- -- -- -- -- -- -- --
2019-03-31 10:00:00 -- -- -- -- -- -- -- -- --
2019-03-31 09:00:00 -- -- -- -- -- -- -- -- --
2019-03-31 08:00:00 -- -- -- -- -- -- -- -- --
2019-03-31 07:00:00 -- -- -- -- -- -- -- -- --
2019-03-31 06:00:00 -- -- -- -- -- -- -- -- --
2019-03-31 05:00:00 -- -- -- -- -- -- -- -- --
2019-03-31 03:00:00 -- -- -- -- -- -- -- -- --
2019-03-31 01:00:00 -- -- -- -- -- -- -- -- --
2019-03-31 00:00:00 -- -- -- -- -- -- -- -- --
2019-03-30 23:00:00 -- -- -- -- -- -- -- -- --
2019-03-30 22:00:00 -- -- -- -- -- -- -- -- --
2019-03-30 21:00:00 -- -- -- -- -- -- -- -- --
2019-03-30 20:00:00 -- -- -- -- -- -- -- -- --
2019-03-30 19:00:00 -- -- -- -- -- -- -- -- --
2019-03-30 18:00:00 -- -- -- -- -- -- -- -- --
2019-03-30 17:00:00 -- -- -- -- -- -- -- -- --
2019-03-30 16:00:00 -- -- -- -- -- -- -- -- --
2019-03-30 15:00:00 -- -- -- -- -- -- -- -- --
2019-03-30 14:00:00 -- -- -- -- -- -- -- -- --
2019-03-30 13:00:00 -- -- -- -- -- -- -- -- --
2019-03-30 12:00:00 -- -- -- -- -- -- -- -- --
2019-03-30 11:00:00 -- -- -- -- -- -- -- -- --
2019-03-30 10:00:00 -- -- -- -- -- -- -- -- --
2019-03-30 09:00:00 -- -- -- -- -- -- -- -- --
2019-03-30 08:00:00 -- -- -- -- -- -- -- -- --
2019-03-30 07:00:00 -- -- -- -- -- -- -- -- --
2019-03-30 06:00:00 -- -- -- -- -- -- -- -- --
2019-03-30 05:00:00 -- -- -- -- -- -- -- -- --
2019-03-30 04:00:00 -- -- -- -- -- -- -- -- --
2019-03-30 03:00:00 -- -- -- -- -- -- -- -- --
2019-03-30 02:00:00 -- -- -- -- -- -- -- -- --
2019-03-30 01:00:00 -- -- -- -- -- -- -- -- --
2019-03-30 00:00:00 -- -- -- -- -- -- -- -- --
2019-03-29 23:00:00 -- -- -- -- -- -- -- -- --
2019-03-29 22:00:00 -- -- -- -- -- -- -- -- --
2019-03-29 21:00:00 -- -- -- -- -- -- -- -- --
2019-03-29 20:00:00 -- -- -- -- -- -- -- -- --
2019-03-29 19:00:00 -- -- -- -- -- -- -- -- --
2019-03-29 18:00:00 -- -- -- -- -- -- -- -- --
2019-03-29 17:00:00 -- -- -- -- -- -- -- -- --
2019-03-29 16:00:00 -- -- -- -- -- -- -- -- --
2019-03-29 15:00:00 -- -- -- -- -- -- -- -- --
2019-03-29 14:00:00 -- -- -- -- -- -- -- -- --
2019-03-29 13:00:00 -- -- -- -- -- -- -- -- --
2019-03-29 12:00:00 -- -- -- -- -- -- -- -- --
2019-03-29 11:00:00 -- -- -- -- -- -- -- -- --
2019-03-29 10:00:00 -- -- -- -- -- -- -- -- --
2019-03-29 09:00:00 -- -- -- -- -- -- -- -- --
2019-03-29 08:00:00 -- -- -- -- -- -- -- -- --
2019-03-29 07:00:00 -- -- -- -- -- -- -- -- --
2019-03-29 06:00:00 12.8 4 Noroeste 9 Noroeste 0 1020.6 -0.5 59
2019-03-29 05:00:00 13 3 Noroeste 15 Este 0 1020.8 -0.4 59
2019-03-29 04:00:00 13.6 3 Este 10 Este 0 1021 -0.4 59
2019-03-29 03:00:00 12.6 5 Noroeste 12 Noroeste 0 1021.1 -0.6 66
2019-03-29 02:00:00 12.7 4 Noroeste 13 Nordeste 0 1021.2 -0.8 66
2019-03-29 01:00:00 14.4 6 Este 33 Sudeste 0 1021.4 -0.6 66
2019-03-29 00:00:00 14.9 21 Sudeste 35 Sudeste 0 1021.7 -0.1 65
2019-03-28 23:00:00 15 19 Sudeste 36 Sudeste 0 1022 0.7 67
2019-03-28 22:00:00 15.2 22 Sudeste 38 Sudeste 0 1022 0.8 67
2019-03-28 21:00:00 15.2 6 Este 37 Este 0 1021.8 0.9 63
2019-03-28 20:00:00 15.3 13 Este 33 Este 0 1021.3 0.3 61
2019-03-28 19:00:00 15.1 17 Sudeste 28 Sudeste 0 1021.2 0.2 63
2019-03-28 18:00:00 15.1 19 Sudeste 36 Sudeste 0 1020.9 -0.5 62
2019-03-28 17:00:00 15.7 22 Sudeste 39 Sudeste 0 1021 -1.1 59
2019-03-28 16:00:00 15.5 22 Este 41 Sudeste 0 1021 -1.5 61
2019-03-28 15:00:00 16 14 Este 36 Sudeste 0 1021.4 -1.8 52
2019-03-28 14:00:00 17.6 9 Este 40 Este 0 1022.1 -1.3 51
2019-03-28 13:00:00 16.4 14 Este 36 Este 0 1022.5 -0.4 50
2019-03-28 12:00:00 17.5 11 Este 32 Este 0 1023.2 0.6 44
2019-03-28 11:00:00 17.6 8 Este 32 Sudeste 0 1023.4 0.8 41
2019-03-28 10:00:00 16.9 10 Este 24 Este 0 1022.9 0.3 45
2019-03-28 09:00:00 16.3 8 Este 24 Este 0 1022.6 0.7 46
2019-03-28 08:00:00 15 13 Este 37 Sudeste 0 1022.6 0.6 51
2019-03-28 07:00:00 14.3 17 Este 41 Sudeste 0 1022.6 0.7 57
2019-03-28 06:00:00 14.4 24 Sudeste 37 Sudeste 0 1021.9 -0.1 59
2019-03-28 05:00:00 14.3 25 Sudeste 42 Sudeste 0 1022 -0.5 60
2019-03-28 04:00:00 14.3 24 Sudeste 37 Sudeste 0 1021.9 -0.8 60
2019-03-28 03:00:00 14.4 22 Sudeste 36 Sudeste 0 1022 -0.5 60
2019-03-28 02:00:00 14.9 23 Sudeste 38 Sudeste 0 1022.5 0 56
2019-03-28 01:00:00 14.9 22 Sudeste 36 Sudeste 0 1022.7 0.5 64
2019-03-28 00:00:00 15.1 23 Sudeste 41 Sudeste 0 1022.5 1.1 66
2019-03-27 23:00:00 15.1 24 Sudeste 38 Sudeste 0 1022.5 2 67
2019-03-27 22:00:00 15.4 23 Sudeste 34 Sudeste 0 1022.2 2.4 63
2019-03-27 21:00:00 15.3 17 Sudeste 29 Sudeste 0 1021.4 2.2 64
2019-03-27 20:00:00 15.6 19 Sudeste 29 Sudeste 0 1020.5 1.6 63
2019-03-27 19:00:00 15.4 17 Sudeste 27 Sudeste 0 1019.8 0.8 59
2019-03-27 18:00:00 15.4 18 Sudeste 31 Sudeste 0 1019.2 0.6 58
2019-03-27 17:00:00 15.7 20 Sudeste 31 Sudeste 0 1018.9 0.2 55
2019-03-27 16:00:00 15.7 22 Sudeste 35 Sudeste 0 1019 0.3 52
2019-03-27 15:00:00 16.6 16 Sudeste 32 Sudeste 0 1018.6 0.5 49
2019-03-27 14:00:00 17.7 11 Sudeste 37 Sudeste 0 1018.7 0.8 48
2019-03-27 13:00:00 16.2 23 Sudeste 38 Sudeste 0 1018.7 1.6 48
2019-03-27 12:00:00 17.2 15 Sudeste 28 Sur 0 1018.1 1.1 41
2019-03-27 11:00:00 17.3 12 Sudeste 26 Sudeste 0 1017.9 1 44
2019-03-27 10:00:00 15.8 21 Sudeste 33 Este 0 1017.1 0.9 49
2019-03-27 09:00:00 15.8 14 Este 29 Este 0 1017 1 53
2019-03-27 08:00:00 14.5 5 Nordeste 40 Este 0 1016.9 1.4 52
2019-03-27 07:00:00 15.4 27 Sudeste 53 Sudeste 0 1016.2 0.3 57
2019-03-27 06:00:00 15.2 23 Sudeste 56 Sudeste 0 1016 0 52
2019-03-27 05:00:00 15.3 19 Sudeste 45 Sudeste 0 1015.5 -0.5 52
2019-03-27 04:00:00 15.3 22 Sudeste 41 Sudeste 0 1015.9 0.1 53
2019-03-27 03:00:00 15 10 Sudeste 41 Este 0 1016 1 60
2019-03-27 02:00:00 15.1 25 Sudeste 44 Este 0 1016 1.4 61
2019-03-27 01:00:00 16 12 Este 36 Este 0 1015.8 1.6 61
2019-03-27 00:00:00 16.2 8 Este 31 Sudeste 0 1015 1.2 64